Flinterborg — PHPH — position and weather

sailwx.info

Track history (hours):
 
Tides and Currents Weather Stations Pressure Air Temp Water Temp Dewpoint Dewpoint Depression Visibility Wind Speed Wind Dir Waves Ship Positions

Flinterborg

Last reported at 2014-Aug-23 01:25 UTC. Time now 2014-Aug-23 15:26 UTC.
Position N 55°01' E 013°40'.

Length 111 m; draft 5.8 m.

Type: Ship. MMSI: 245433000.

Date/timePositionNaut miles runAvg speedWind from/ knotsBaromVisibWave heightAir tempDewpointWater temp
2014-Aug-23 01:25N 55°01' E 013°40'20 9.1
2014-Aug-22 23:14N 55°11' E 014°11'7 9.8
2014-Aug-22 22:31N 55°16' E 014°20'10 9.8
2014-Aug-22 21:31N 55°23' E 014°31'11 9.9
2014-Aug-22 20:26N 55°29' E 014°47'8 9.4
2014-Aug-22 19:33N 55°34' E 014°59'1210.0
2014-Aug-22 18:23N 55°40' E 015°17'910.5
2014-Aug-22 17:30N 55°44' E 015°31'1010.9
2014-Aug-22 16:33N 55°50' E 015°47'1110.5
2014-Aug-22 15:31N 55°56' E 016°03'1010.0
2014-Aug-22 14:33N 56°01' E 016°17'30911.0
2014-Aug-21 10:28N 59°42' E 023°02'7 7.6
2014-Aug-21 09:33N 59°48' E 023°10'7 6.7
2014-Aug-21 08:33N 59°54' E 023°16'0 0.0
2014-Aug-21 07:33N 59°54' E 023°16'0 0.0
2014-Aug-21 06:33N 59°54' E 023°16'0 0.0
2014-Aug-21 05:31N 59°54' E 023°16'0 0.0
2014-Aug-21 04:33N 59°54' E 023°16'0 0.0
2014-Aug-21 03:33N 59°54' E 023°16'0 0.0
2014-Aug-21 02:23N 59°54' E 023°16'0 0.0
2014-Aug-21 01:29N 59°54' E 023°16'0 0.0
2014-Aug-21 00:32N 59°54' E 023°16'0 0.0
2014-Aug-20 23:32N 59°54' E 023°16'0 0.0
2014-Aug-20 22:32N 59°54' E 023°16'0 0.0
2014-Aug-20 21:33N 59°54' E 023°16'0 0.0
2014-Aug-20 20:23N 59°54' E 023°16'0 0.0
2014-Aug-20 19:14N 59°54' E 023°16'0 0.0
2014-Aug-20 18:14N 59°54' E 023°16'0 0.0
2014-Aug-20 17:33N 59°54' E 023°16'0 0.0
2014-Aug-20 16:12N 59°54' E 023°16'0 0.0
2014-Aug-20 15:33N 59°54' E 023°16'0 0.0
2014-Aug-20 14:25N 59°54' E 023°16'0 0.0
2014-Aug-20 13:33N 59°54' E 023°16'0 0.0
2014-Aug-20 12:33N 59°54' E 023°16'0 0.0
2014-Aug-20 11:29N 59°54' E 023°16'0 0.0
2014-Aug-20 10:33N 59°54' E 023°16'0 0.0
2014-Aug-20 09:33N 59°54' E 023°16'0 0.0
2014-Aug-20 08:32N 59°54' E 023°16'0 0.0
2014-Aug-20 07:31N 59°54' E 023°16'0 0.0
2014-Aug-20 06:33N 59°54' E 023°16'0 0.0
2014-Aug-20 05:33N 59°54' E 023°16'0 0.0
2014-Aug-20 04:25N 59°54' E 023°16'0 0.0
2014-Aug-20 03:32N 59°54' E 023°16'0 0.0
2014-Aug-20 02:32N 59°54' E 023°16'0 0.0
2014-Aug-20 01:33N 59°54' E 023°16'0 0.0
2014-Aug-20 00:33N 59°54' E 023°16'0 0.0
2014-Aug-19 23:33N 59°54' E 023°16'0 0.0
2014-Aug-19 22:31N 59°54' E 023°16'0 0.0
2014-Aug-19 21:33N 59°54' E 023°16'0 0.0
2014-Aug-19 20:28N 59°54' E 023°16'0 0.0
2014-Aug-19 19:33N 59°54' E 023°16'0 0.0
2014-Aug-19 18:33N 59°54' E 023°16'0 0.0
2014-Aug-19 17:17N 59°54' E 023°16'0 0.0
2014-Aug-19 16:28N 59°54' E 023°16'0 0.0
2014-Aug-19 15:32N 59°54' E 023°16'0 0.0
2014-Aug-19 14:24N 59°54' E 023°16'0 0.0
2014-Aug-19 13:24N 59°54' E 023°16'0 0.0
2014-Aug-19 12:27N 59°54' E 023°16'0 0.0
2014-Aug-19 11:08N 59°54' E 023°16'0 0.0
2014-Aug-19 10:29N 59°54' E 023°16'0 0.0
2014-Aug-19 09:33N 59°54' E 023°16'0 0.0
2014-Aug-19 08:28N 59°54' E 023°16'0 0.0
2014-Aug-19 07:32N 59°54' E 023°16'0 0.0
2014-Aug-19 06:32N 59°54' E 023°16'0 0.0
2014-Aug-19 05:33N 59°54' E 023°16'0 0.0
2014-Aug-19 04:33N 59°54' E 023°16'0 0.0
2014-Aug-19 03:33N 59°54' E 023°16'0 0.0
2014-Aug-19 02:33N 59°54' E 023°16'0 0.0
2014-Aug-19 01:33N 59°54' E 023°16'0 0.0
2014-Aug-19 00:33N 59°54' E 023°16'0 0.0
2014-Aug-18 23:33N 59°54' E 023°16'0 0.0
2014-Aug-18 22:33N 59°54' E 023°16'0 0.0
2014-Aug-18 21:33N 59°54' E 023°16'0 0.0
2014-Aug-18 20:33N 59°54' E 023°16'0 0.0
2014-Aug-18 19:33N 59°54' E 023°16'0 0.0
2014-Aug-18 18:33N 59°54' E 023°16'0 0.0
2014-Aug-18 17:33N 59°54' E 023°16'0 0.0
2014-Aug-18 16:33N 59°54' E 023°16'0 0.0
2014-Aug-18 15:33N 59°54' E 023°16'0 0.0
2014-Aug-18 14:33N 59°54' E 023°16'0 0.0
2014-Aug-18 13:33N 59°54' E 023°16'0 0.0
2014-Aug-18 12:33N 59°54' E 023°16'0 0.0
2014-Aug-18 11:33N 59°54' E 023°16'0 0.0
2014-Aug-18 10:33N 59°54' E 023°16'0 0.0
2014-Aug-18 09:33N 59°54' E 023°16'0 0.0
2014-Aug-18 08:32N 59°54' E 023°16'0 0.0
2014-Aug-18 07:33N 59°54' E 023°16'0 0.0
2014-Aug-18 06:31N 59°54' E 023°16'0 0.0
2014-Aug-18 05:33N 59°54' E 023°16'0 0.0
2014-Aug-18 04:33N 59°54' E 023°16'0 0.0
2014-Aug-18 03:33N 59°54' E 023°16'0 0.0
2014-Aug-18 02:33N 59°54' E 023°16'0 0.0
2014-Aug-18 01:33N 59°54' E 023°16'0 0.0
2014-Aug-18 00:33N 59°54' E 023°16'8 1.3
2014-Aug-17 18:33N 59°48' E 023°07'33911.7
2014-Aug-16 13:29N 55°44' E 015°45'1111.4
2014-Aug-16 12:31N 55°38' E 015°28'1111.6
2014-Aug-16 11:33N 55°33' E 015°11'1111.4
2014-Aug-16 10:33N 55°27' E 014°53'1111.4
2014-Aug-16 09:33N 55°21' E 014°36'1111.5
2014-Aug-16 08:33N 55°13' E 014°22'3712.2
2014-Aug-16 05:33N 55°13' E 013°18'1211.6
2014-Aug-16 04:33N 55°14' E 012°58'1111.4
2014-Aug-16 03:33N 55°17' E 012°39'1010.4
2014-Aug-16 02:33N 55°28' E 012°40'1212.4
2014-Aug-16 01:33N 55°40' E 012°41'1211.9
2014-Aug-16 00:33N 55°52' E 012°38'1211.6
2014-Aug-15 23:33N 56°03' E 012°38'1212.2
2014-Aug-15 22:33N 56°10' E 012°20'1111.2
2014-Aug-15 21:33N 56°11' E 011°60'102 2.0
2014-Aug-13 19:27N 54°31' E 011°32'1111.8
2014-Aug-13 18:34N 54°26' E 011°48'1212.1
2014-Aug-13 17:34N 54°27' E 012°09'1211.5
2014-Aug-13 16:34N 54°35' E 012°23'1212.0
2014-Aug-13 15:33N 54°40' E 012°42'1212.5
2014-Aug-13 14:34N 54°43' E 013°03'1212.1
2014-Aug-13 13:33N 54°45' E 013°23'1010.1
2014-Aug-13 12:33N 54°41' E 013°39'1212.5
2014-Aug-13 11:34N 54°30' E 013°50'1212.3
2014-Aug-13 10:33N 54°20' E 014°01'1211.6
2014-Aug-13 09:31N 54°10' E 014°13'27 9.2
2014-Aug-13 06:34N 53°44' E 014°26'1110.6
2014-Aug-13 05:33N 53°35' E 014°36'8 8.4
2014-Aug-13 04:33N 53°26' E 014°35'0 0.3
2014-Aug-13 03:33N 53°26' E 014°35'0 0.0
2014-Aug-13 02:33N 53°26' E 014°35'0 0.0
2014-Aug-13 01:32N 53°26' E 014°35'  
Track history (hours):
 
Tides and Currents Weather Stations Pressure Air Temp Water Temp Dewpoint Dewpoint Depression Visibility Wind Speed Wind Dir Waves Ship Positions

Flinterborg

Last reported at 2014-Aug-23 01:25 UTC. Time now 2014-Aug-23 15:26 UTC.
Position N 55°01' E 013°40'.

Length 111 m; draft 5.8 m.

Type: Ship. MMSI: 245433000.

Date/timePositionNaut miles runAvg speedWind from/ knotsBaromVisibWave heightAir tempDewpointWater temp
2014-Aug-23 01:25N 55°01' E 013°40'20 9.1
2014-Aug-22 23:14N 55°11' E 014°11'7 9.8
2014-Aug-22 22:31N 55°16' E 014°20'10 9.8
2014-Aug-22 21:31N 55°23' E 014°31'11 9.9
2014-Aug-22 20:26N 55°29' E 014°47'8 9.4
2014-Aug-22 19:33N 55°34' E 014°59'1210.0
2014-Aug-22 18:23N 55°40' E 015°17'910.5
2014-Aug-22 17:30N 55°44' E 015°31'1010.9
2014-Aug-22 16:33N 55°50' E 015°47'1110.5
2014-Aug-22 15:31N 55°56' E 016°03'1010.0
2014-Aug-22 14:33N 56°01' E 016°17'30911.0
2014-Aug-21 10:28N 59°42' E 023°02'7 7.6
2014-Aug-21 09:33N 59°48' E 023°10'7 6.7
2014-Aug-21 08:33N 59°54' E 023°16'0 0.0
2014-Aug-21 07:33N 59°54' E 023°16'0 0.0
2014-Aug-21 06:33N 59°54' E 023°16'0 0.0
2014-Aug-21 05:31N 59°54' E 023°16'0 0.0
2014-Aug-21 04:33N 59°54' E 023°16'0 0.0
2014-Aug-21 03:33N 59°54' E 023°16'0 0.0
2014-Aug-21 02:23N 59°54' E 023°16'0 0.0
2014-Aug-21 01:29N 59°54' E 023°16'0 0.0
2014-Aug-21 00:32N 59°54' E 023°16'0 0.0
2014-Aug-20 23:32N 59°54' E 023°16'0 0.0
2014-Aug-20 22:32N 59°54' E 023°16'0 0.0
2014-Aug-20 21:33N 59°54' E 023°16'0 0.0
2014-Aug-20 20:23N 59°54' E 023°16'0 0.0
2014-Aug-20 19:14N 59°54' E 023°16'0 0.0
2014-Aug-20 18:14N 59°54' E 023°16'0 0.0
2014-Aug-20 17:33N 59°54' E 023°16'0 0.0
2014-Aug-20 16:12N 59°54' E 023°16'0 0.0
2014-Aug-20 15:33N 59°54' E 023°16'0 0.0
2014-Aug-20 14:25N 59°54' E 023°16'0 0.0
2014-Aug-20 13:33N 59°54' E 023°16'0 0.0
2014-Aug-20 12:33N 59°54' E 023°16'0 0.0
2014-Aug-20 11:29N 59°54' E 023°16'0 0.0
2014-Aug-20 10:33N 59°54' E 023°16'0 0.0
2014-Aug-20 09:33N 59°54' E 023°16'0 0.0
2014-Aug-20 08:32N 59°54' E 023°16'0 0.0
2014-Aug-20 07:31N 59°54' E 023°16'0 0.0
2014-Aug-20 06:33N 59°54' E 023°16'0 0.0
2014-Aug-20 05:33N 59°54' E 023°16'0 0.0
2014-Aug-20 04:25N 59°54' E 023°16'0 0.0
2014-Aug-20 03:32N 59°54' E 023°16'0 0.0
2014-Aug-20 02:32N 59°54' E 023°16'0 0.0
2014-Aug-20 01:33N 59°54' E 023°16'0 0.0
2014-Aug-20 00:33N 59°54' E 023°16'0 0.0
2014-Aug-19 23:33N 59°54' E 023°16'0 0.0
2014-Aug-19 22:31N 59°54' E 023°16'0 0.0
2014-Aug-19 21:33N 59°54' E 023°16'0 0.0
2014-Aug-19 20:28N 59°54' E 023°16'0 0.0
2014-Aug-19 19:33N 59°54' E 023°16'0 0.0
2014-Aug-19 18:33N 59°54' E 023°16'0 0.0
2014-Aug-19 17:17N 59°54' E 023°16'0 0.0
2014-Aug-19 16:28N 59°54' E 023°16'0 0.0
2014-Aug-19 15:32N 59°54' E 023°16'0 0.0
2014-Aug-19 14:24N 59°54' E 023°16'0 0.0
2014-Aug-19 13:24N 59°54' E 023°16'0 0.0
2014-Aug-19 12:27N 59°54' E 023°16'0 0.0
2014-Aug-19 11:08N 59°54' E 023°16'0 0.0
2014-Aug-19 10:29N 59°54' E 023°16'0 0.0
2014-Aug-19 09:33N 59°54' E 023°16'0 0.0
2014-Aug-19 08:28N 59°54' E 023°16'0 0.0
2014-Aug-19 07:32N 59°54' E 023°16'0 0.0
2014-Aug-19 06:32N 59°54' E 023°16'0 0.0
2014-Aug-19 05:33N 59°54' E 023°16'0 0.0
2014-Aug-19 04:33N 59°54' E 023°16'0 0.0
2014-Aug-19 03:33N 59°54' E 023°16'0 0.0
2014-Aug-19 02:33N 59°54' E 023°16'0 0.0
2014-Aug-19 01:33N 59°54' E 023°16'0 0.0
2014-Aug-19 00:33N 59°54' E 023°16'0 0.0
2014-Aug-18 23:33N 59°54' E 023°16'0 0.0
2014-Aug-18 22:33N 59°54' E 023°16'0 0.0
2014-Aug-18 21:33N 59°54' E 023°16'0 0.0
2014-Aug-18 20:33N 59°54' E 023°16'0 0.0
2014-Aug-18 19:33N 59°54' E 023°16'0 0.0
2014-Aug-18 18:33N 59°54' E 023°16'0 0.0
2014-Aug-18 17:33N 59°54' E 023°16'0 0.0
2014-Aug-18 16:33N 59°54' E 023°16'0 0.0
2014-Aug-18 15:33N 59°54' E 023°16'0 0.0
2014-Aug-18 14:33N 59°54' E 023°16'0 0.0
2014-Aug-18 13:33N 59°54' E 023°16'0 0.0
2014-Aug-18 12:33N 59°54' E 023°16'0 0.0
2014-Aug-18 11:33N 59°54' E 023°16'0 0.0
2014-Aug-18 10:33N 59°54' E 023°16'0 0.0
2014-Aug-18 09:33N 59°54' E 023°16'0 0.0
2014-Aug-18 08:32N 59°54' E 023°16'0 0.0
2014-Aug-18 07:33N 59°54' E 023°16'0 0.0
2014-Aug-18 06:31N 59°54' E 023°16'0 0.0
2014-Aug-18 05:33N 59°54' E 023°16'0 0.0
2014-Aug-18 04:33N 59°54' E 023°16'0 0.0
2014-Aug-18 03:33N 59°54' E 023°16'0 0.0
2014-Aug-18 02:33N 59°54' E 023°16'0 0.0
2014-Aug-18 01:33N 59°54' E 023°16'0 0.0
2014-Aug-18 00:33N 59°54' E 023°16'8 1.3
2014-Aug-17 18:33N 59°48' E 023°07'33911.7
2014-Aug-16 13:29N 55°44' E 015°45'1111.4
2014-Aug-16 12:31N 55°38' E 015°28'1111.6
2014-Aug-16 11:33N 55°33' E 015°11'1111.4
2014-Aug-16 10:33N 55°27' E 014°53'1111.4
2014-Aug-16 09:33N 55°21' E 014°36'1111.5
2014-Aug-16 08:33N 55°13' E 014°22'3712.2
2014-Aug-16 05:33N 55°13' E 013°18'1211.6
2014-Aug-16 04:33N 55°14' E 012°58'1111.4
2014-Aug-16 03:33N 55°17' E 012°39'1010.4
2014-Aug-16 02:33N 55°28' E 012°40'1212.4
2014-Aug-16 01:33N 55°40' E 012°41'1211.9
2014-Aug-16 00:33N 55°52' E 012°38'1211.6
2014-Aug-15 23:33N 56°03' E 012°38'1212.2
2014-Aug-15 22:33N 56°10' E 012°20'1111.2
2014-Aug-15 21:33N 56°11' E 011°60'102 2.0
2014-Aug-13 19:27N 54°31' E 011°32'1111.8
2014-Aug-13 18:34N 54°26' E 011°48'1212.1
2014-Aug-13 17:34N 54°27' E 012°09'1211.5
2014-Aug-13 16:34N 54°35' E 012°23'1212.0
2014-Aug-13 15:33N 54°40' E 012°42'1212.5
2014-Aug-13 14:34N 54°43' E 013°03'1212.1
2014-Aug-13 13:33N 54°45' E 013°23'1010.1
2014-Aug-13 12:33N 54°41' E 013°39'1212.5
2014-Aug-13 11:34N 54°30' E 013°50'1212.3
2014-Aug-13 10:33N 54°20' E 014°01'1211.6
2014-Aug-13 09:31N 54°10' E 014°13'27 9.2
2014-Aug-13 06:34N 53°44' E 014°26'1110.6
2014-Aug-13 05:33N 53°35' E 014°36'8 8.4
2014-Aug-13 04:33N 53°26' E 014°35'0 0.3
2014-Aug-13 03:33N 53°26' E 014°35'0 0.0
2014-Aug-13 02:33N 53°26' E 014°35'0 0.0
2014-Aug-13 01:32N 53°26' E 014°35'  

Dump ship's entire track history